createdAt,value
2022-09-13T00:01:01.695Z,63.51
2022-09-13T00:02:03.982Z,63.99
2022-09-13T00:03:11.393Z,63.87
2022-09-13T00:04:13.648Z,64.05
2022-09-13T00:05:15.879Z,64.08
2022-09-13T00:06:19.519Z,63.98
2022-09-13T00:07:21.687Z,63.98
2022-09-13T00:08:24.535Z,64.04
2022-09-13T00:09:29.218Z,63.97
2022-09-13T00:10:34.538Z,63.98
2022-09-13T00:11:36.729Z,64.06
2022-09-13T00:12:39.467Z,64.07
2022-09-13T00:13:41.665Z,63.79
2022-09-13T00:14:43.822Z,63.95
2022-09-13T00:15:48.395Z,64.14
2022-09-13T00:16:56.693Z,64.18
2022-09-13T00:18:01.995Z,64.30
2022-09-13T00:19:04.218Z,64.17
2022-09-13T00:20:07.191Z,64.13
2022-09-13T00:21:15.291Z,64.35
2022-09-13T00:22:17.448Z,64.34
2022-09-13T00:23:19.573Z,64.13
2022-09-13T00:24:21.813Z,64.10
2022-09-13T00:25:23.963Z,64.32
2022-09-13T00:26:28.245Z,64.37
2022-09-13T00:27:30.399Z,64.34
2022-09-13T00:28:32.579Z,64.14
2022-09-13T00:29:34.805Z,64.59
2022-09-13T00:30:36.977Z,64.46
2022-09-13T00:31:39.294Z,64.44
2022-09-13T00:32:41.479Z,64.49
2022-09-13T00:33:43.631Z,64.77
2022-09-13T00:34:45.775Z,64.55
2022-09-13T00:35:47.900Z,64.52
2022-09-13T00:36:50.081Z,64.67
2022-09-13T00:37:52.257Z,64.58
2022-09-13T00:38:54.393Z,64.72
2022-09-13T00:39:56.606Z,64.42
2022-09-13T00:40:58.752Z,64.62
2022-09-13T00:42:00.943Z,64.59
2022-09-13T00:43:12.406Z,64.65
2022-09-13T00:44:51.970Z,64.76
2022-09-13T00:45:54.148Z,64.90
2022-09-13T00:46:56.426Z,65.00
2022-09-13T00:48:15.788Z,64.70
2022-09-13T00:49:24.214Z,64.81
2022-09-13T00:50:43.695Z,64.83
2022-09-13T00:51:51.020Z,64.76
2022-09-13T00:52:58.965Z,64.96
2022-09-13T00:54:03.725Z,64.94
2022-09-13T00:55:15.486Z,64.99
2022-09-13T00:56:44.183Z,64.78
2022-09-13T00:57:46.511Z,64.84
2022-09-13T00:58:54.340Z,65.25
2022-09-13T01:00:00.535Z,65.12
2022-09-13T01:01:10.170Z,64.96
2022-09-13T01:02:13.309Z,65.15
2022-09-13T01:03:19.573Z,64.98
2022-09-13T01:04:25.699Z,65.09
2022-09-13T01:05:32.886Z,65.25
2022-09-13T01:06:42.838Z,65.32
2022-09-13T01:07:45.024Z,65.14
2022-09-13T01:08:52.862Z,65.22
2022-09-13T01:10:00.378Z,65.26
2022-09-13T01:11:06.330Z,65.27
2022-09-13T01:12:18.930Z,65.36
2022-09-13T01:13:25.160Z,65.40
2022-09-13T01:14:31.004Z,65.36
2022-09-13T01:15:33.125Z,65.31
2022-09-13T01:16:35.817Z,65.46
2022-09-13T01:17:42.097Z,65.23
2022-09-13T01:18:44.233Z,65.38
2022-09-13T01:19:46.396Z,65.51
2022-09-13T01:21:18.645Z,65.60
2022-09-13T01:22:54.194Z,65.30
2022-09-13T01:24:05.216Z,65.48
2022-09-13T01:25:44.852Z,65.34
2022-09-13T01:27:19.495Z,65.25
2022-09-13T01:28:48.466Z,65.44
2022-09-13T01:30:11.871Z,65.28
2022-09-13T01:31:44.436Z,65.41
2022-09-13T01:33:11.697Z,65.42
2022-09-13T01:34:45.461Z,65.36
2022-09-13T01:36:20.776Z,65.45
2022-09-13T01:37:41.195Z,65.67
2022-09-13T01:38:45.981Z,65.37
2022-09-13T01:40:20.554Z,65.34
2022-09-13T01:41:49.657Z,65.55
2022-09-13T01:43:20.465Z,65.88
2022-09-13T01:44:41.344Z,65.41
2022-09-13T01:45:57.376Z,65.74
2022-09-13T01:47:19.613Z,65.57
2022-09-13T01:48:58.798Z,65.68
2022-09-13T01:50:34.217Z,65.84
2022-09-13T01:51:48.454Z,65.83
2022-09-13T01:52:58.959Z,65.83
2022-09-13T01:54:18.438Z,65.71
2022-09-13T01:55:48.416Z,65.77
2022-09-13T01:57:23.288Z,65.65
2022-09-13T01:58:38.004Z,65.75
2022-09-13T01:59:52.676Z,65.96
2022-09-13T02:01:13.686Z,65.64
2022-09-13T02:02:39.395Z,65.78
2022-09-13T02:03:55.813Z,65.76
2022-09-13T02:05:09.948Z,65.71
2022-09-13T02:06:21.781Z,65.82
2022-09-13T02:07:40.915Z,65.85
2022-09-13T02:09:19.510Z,65.58
2022-09-13T02:10:33.454Z,65.79
2022-09-13T02:11:38.186Z,65.74
2022-09-13T02:12:43.831Z,66.00
2022-09-13T02:14:20.272Z,65.57
2022-09-13T02:15:28.165Z,65.97
2022-09-13T02:16:42.011Z,65.89
2022-09-13T02:18:02.423Z,65.82
2022-09-13T02:19:35.451Z,65.69
2022-09-13T02:20:45.658Z,65.85
2022-09-13T02:21:53.069Z,65.82
2022-09-13T02:22:59.360Z,65.89
2022-09-13T02:24:25.582Z,65.87
2022-09-13T02:25:31.365Z,66.00
2022-09-13T02:26:36.868Z,65.78
2022-09-13T02:27:42.066Z,65.73
2022-09-13T02:28:51.565Z,66.07
2022-09-13T02:29:59.833Z,66.00
2022-09-13T02:31:05.000Z,66.03
2022-09-13T02:32:21.332Z,65.95
2022-09-13T02:33:29.313Z,65.82
2022-09-13T02:34:45.711Z,65.95
2022-09-13T02:36:06.202Z,65.98
2022-09-13T02:37:10.760Z,65.98
2022-09-13T02:38:33.346Z,66.01
2022-09-13T02:39:41.727Z,65.90
2022-09-13T02:40:49.672Z,66.04
2022-09-13T02:42:00.879Z,65.78
2022-09-13T02:43:12.208Z,65.92
2022-09-13T02:44:49.012Z,65.75
2022-09-13T02:46:14.428Z,65.75
2022-09-13T02:47:42.208Z,65.75
2022-09-13T02:49:07.317Z,65.67
2022-09-13T02:50:28.409Z,65.97
2022-09-13T02:51:39.895Z,66.02
2022-09-13T02:53:03.033Z,65.77
2022-09-13T02:54:14.804Z,65.92
2022-09-13T02:55:41.032Z,65.96
2022-09-13T02:56:49.586Z,65.69
2022-09-13T02:57:54.456Z,65.94
2022-09-13T02:59:15.181Z,65.82
2022-09-13T03:00:17.431Z,65.83
2022-09-13T03:01:21.716Z,65.97
2022-09-13T03:02:29.439Z,65.97
2022-09-13T03:03:31.663Z,66.04
2022-09-13T03:04:36.951Z,66.05
2022-09-13T03:05:40.117Z,66.21
2022-09-13T03:06:43.128Z,65.96
2022-09-13T03:07:45.571Z,66.08
2022-09-13T03:08:47.819Z,65.92
2022-09-13T03:09:55.792Z,65.99
2022-09-13T03:11:36.212Z,65.82
2022-09-13T03:12:50.943Z,65.99
2022-09-13T03:14:34.533Z,65.96
2022-09-13T03:16:13.772Z,65.91
2022-09-13T03:17:18.925Z,65.70
2022-09-13T03:19:00.917Z,65.91
2022-09-13T03:20:21.795Z,66.10
2022-09-13T03:21:39.675Z,66.13
2022-09-13T03:23:19.129Z,66.02
2022-09-13T03:25:00.652Z,65.94
2022-09-13T03:26:26.356Z,65.88
2022-09-13T03:27:37.100Z,66.04
2022-09-13T03:28:55.803Z,65.97
2022-09-13T03:30:04.998Z,66.05
2022-09-13T03:31:12.681Z,66.01
2022-09-13T03:32:41.155Z,66.20
2022-09-13T03:34:02.109Z,66.18
2022-09-13T03:35:18.758Z,66.43
2022-09-13T03:36:40.287Z,66.12
2022-09-13T03:38:08.110Z,66.34
2022-09-13T03:39:30.184Z,66.06
2022-09-13T03:40:54.857Z,66.12
2022-09-13T03:42:01.347Z,66.30
2022-09-13T03:43:24.663Z,66.12
2022-09-13T03:44:29.638Z,66.42
2022-09-13T03:45:36.086Z,66.30
2022-09-13T03:46:57.381Z,66.08
2022-09-13T03:48:01.434Z,66.35
2022-09-13T03:49:09.045Z,66.43
2022-09-13T03:50:21.128Z,66.21
2022-09-13T03:51:23.910Z,66.36
2022-09-13T03:52:27.084Z,66.28
2022-09-13T03:53:31.485Z,66.34
2022-09-13T03:54:45.742Z,66.46
2022-09-13T03:55:47.888Z,66.29
2022-09-13T03:57:12.998Z,66.15
2022-09-13T03:58:22.396Z,66.45
2022-09-13T03:59:26.833Z,66.37
2022-09-13T04:00:32.222Z,66.28
2022-09-13T04:01:34.419Z,66.02
2022-09-13T04:02:37.057Z,66.22
2022-09-13T04:03:39.940Z,66.16
2022-09-13T04:04:44.007Z,66.16
2022-09-13T04:05:46.626Z,66.21
2022-09-13T04:06:48.773Z,65.96
2022-09-13T04:07:50.910Z,66.12
2022-09-13T04:08:53.079Z,66.00
2022-09-13T04:09:56.149Z,65.91
2022-09-13T04:11:00.994Z,66.12
2022-09-13T04:12:03.483Z,66.13
2022-09-13T04:13:06.071Z,65.97
2022-09-13T04:14:08.662Z,65.96
2022-09-13T04:15:10.782Z,65.88
2022-09-13T04:16:12.929Z,66.04
2022-09-13T04:17:16.221Z,66.09
2022-09-13T04:18:18.507Z,65.93
2022-09-13T04:19:21.052Z,65.79
2022-09-13T04:20:23.251Z,65.99
2022-09-13T04:21:25.392Z,65.72
2022-09-13T04:22:27.540Z,65.98
2022-09-13T04:23:30.395Z,65.83
2022-09-13T04:24:33.333Z,65.76
2022-09-13T04:25:41.340Z,65.96
2022-09-13T04:26:44.063Z,65.77
2022-09-13T04:27:47.150Z,65.86
2022-09-13T04:28:49.466Z,65.81
2022-09-13T04:29:51.707Z,65.96
2022-09-13T04:30:53.878Z,65.64
2022-09-13T04:31:56.334Z,65.76
2022-09-13T04:32:58.677Z,65.69
2022-09-13T04:34:00.803Z,65.68
2022-09-13T04:35:03.005Z,65.86
2022-09-13T04:36:07.821Z,65.76
2022-09-13T04:37:10.007Z,65.67
2022-09-13T04:38:12.185Z,65.89
2022-09-13T04:39:14.382Z,65.80
2022-09-13T04:40:17.377Z,65.71
2022-09-13T04:41:19.533Z,66.05
2022-09-13T04:42:21.713Z,65.75
2022-09-13T04:43:24.558Z,65.78
2022-09-13T04:44:27.275Z,65.82
2022-09-13T04:45:29.785Z,65.94
2022-09-13T04:46:32.023Z,65.88
2022-09-13T04:47:34.161Z,65.83
2022-09-13T04:48:37.078Z,65.88
2022-09-13T04:49:40.112Z,66.01
2022-09-13T04:50:42.647Z,65.72
2022-09-13T04:51:44.814Z,66.01
2022-09-13T04:52:47.085Z,66.09
2022-09-13T04:53:57.196Z,65.89
2022-09-13T04:55:01.675Z,66.00
2022-09-13T04:56:05.268Z,66.13
2022-09-13T04:57:07.430Z,66.01
2022-09-13T04:58:09.625Z,65.94
2022-09-13T04:59:12.534Z,65.97
2022-09-13T05:00:14.922Z,66.18
2022-09-13T05:01:19.953Z,66.06
2022-09-13T05:02:22.267Z,66.18
2022-09-13T05:03:25.126Z,66.36
2022-09-13T05:04:27.277Z,66.19
2022-09-13T05:05:29.836Z,66.35
2022-09-13T05:06:32.051Z,66.27
2022-09-13T05:07:34.253Z,66.29
2022-09-13T05:08:37.483Z,66.18
2022-09-13T05:09:39.837Z,66.20
2022-09-13T05:10:41.966Z,66.26
2022-09-13T05:11:44.196Z,66.24
2022-09-13T05:12:46.753Z,66.15
2022-09-13T05:13:55.546Z,66.29
2022-09-13T05:14:57.711Z,66.04
2022-09-13T05:16:03.390Z,66.20
2022-09-13T05:17:06.282Z,66.04
2022-09-13T05:18:08.666Z,66.24
2022-09-13T05:19:11.996Z,66.17
2022-09-13T05:20:14.169Z,66.29
2022-09-13T05:21:18.776Z,66.27
2022-09-13T05:22:20.945Z,66.24
2022-09-13T05:23:24.180Z,66.20
2022-09-13T05:24:27.426Z,66.35
2022-09-13T05:25:29.613Z,66.35
2022-09-13T05:26:31.931Z,66.32
2022-09-13T05:27:36.704Z,66.41
2022-09-13T05:28:39.097Z,66.47
2022-09-13T05:29:45.138Z,66.26
2022-09-13T05:31:08.302Z,66.14
2022-09-13T05:32:11.105Z,66.13
2022-09-13T05:33:13.223Z,66.10
2022-09-13T05:34:20.452Z,66.07
2022-09-13T05:35:22.597Z,65.85
2022-09-13T05:36:25.381Z,65.72
2022-09-13T05:37:34.818Z,65.69
2022-09-13T05:38:37.069Z,65.39
2022-09-13T05:40:00.631Z,65.43
2022-09-13T05:41:03.105Z,65.43
2022-09-13T05:42:05.579Z,65.40
2022-09-13T05:43:07.832Z,65.05
2022-09-13T05:44:13.261Z,64.89
2022-09-13T05:45:18.922Z,64.72
2022-09-13T05:46:22.191Z,64.81
2022-09-13T05:47:24.409Z,64.46
2022-09-13T05:48:26.529Z,64.55
2022-09-13T05:49:30.985Z,64.43
2022-09-13T05:50:57.417Z,64.32
2022-09-13T05:51:59.691Z,64.32
2022-09-13T05:53:02.169Z,64.01
2022-09-13T05:54:04.464Z,64.14
2022-09-13T05:55:06.855Z,63.94
2022-09-13T05:56:15.885Z,63.66
2022-09-13T05:57:18.791Z,63.82
2022-09-13T05:58:20.938Z,63.82
2022-09-13T05:59:23.433Z,63.65
2022-09-13T06:00:25.710Z,63.75
2022-09-13T06:01:29.542Z,63.58
2022-09-13T06:02:32.521Z,63.33
2022-09-13T06:03:35.531Z,63.44
2022-09-13T06:04:37.648Z,63.27
2022-09-13T06:05:39.776Z,63.13
2022-09-13T06:06:41.945Z,63.36
2022-09-13T06:07:44.071Z,62.75
2022-09-13T06:08:46.976Z,63.07
2022-09-13T06:09:49.166Z,62.72
2022-09-13T06:10:58.517Z,62.53
2022-09-13T06:12:00.655Z,62.21
2022-09-13T06:13:02.804Z,62.13
2022-09-13T06:14:05.080Z,62.03
2022-09-13T06:15:09.022Z,61.62
2022-09-13T06:16:13.378Z,61.57
2022-09-13T06:17:18.683Z,61.11
2022-09-13T06:18:21.370Z,60.94
2022-09-13T06:19:26.319Z,60.75
2022-09-13T06:20:28.479Z,60.56
2022-09-13T06:21:30.607Z,60.25
2022-09-13T06:22:36.082Z,59.52
2022-09-13T06:23:38.713Z,59.45
2022-09-13T06:24:43.874Z,58.95
2022-09-13T06:25:46.722Z,58.79
2022-09-13T06:26:48.994Z,58.86
2022-09-13T06:27:51.148Z,58.60
2022-09-13T06:28:55.202Z,58.29
2022-09-13T06:30:02.520Z,57.79
2022-09-13T06:31:12.747Z,57.41
2022-09-13T06:32:18.009Z,57.36
2022-09-13T06:33:20.160Z,56.98
2022-09-13T06:34:22.327Z,57.11
2022-09-13T06:35:24.505Z,56.75
2022-09-13T06:36:26.866Z,56.60
2022-09-13T06:37:29.018Z,56.52
2022-09-13T06:38:31.526Z,56.78
2022-09-13T06:39:34.385Z,56.63
2022-09-13T06:40:36.575Z,56.21
2022-09-13T06:41:38.808Z,56.29
2022-09-13T06:42:41.045Z,56.45
2022-09-13T06:43:43.181Z,56.77
2022-09-13T06:44:46.180Z,56.49
2022-09-13T06:45:48.771Z,56.47
2022-09-13T06:46:50.936Z,56.80
2022-09-13T06:47:56.074Z,56.18
2022-09-13T06:49:03.870Z,55.87
2022-09-13T06:50:07.597Z,55.80
2022-09-13T06:51:12.614Z,55.58
2022-09-13T06:52:14.742Z,55.35
2022-09-13T06:53:16.888Z,55.03
2022-09-13T06:54:19.082Z,55.01
2022-09-13T06:55:22.212Z,54.46
2022-09-13T06:56:27.390Z,54.56
2022-09-13T06:57:34.521Z,54.14
2022-09-13T06:58:37.937Z,54.48
2022-09-13T06:59:40.136Z,54.29
2022-09-13T07:00:42.410Z,54.22
2022-09-13T07:01:45.212Z,53.94
2022-09-13T07:02:51.952Z,54.12
2022-09-13T07:03:55.919Z,54.05
2022-09-13T07:04:58.135Z,54.39
2022-09-13T07:06:00.300Z,54.56
2022-09-13T07:07:02.514Z,54.09
2022-09-13T07:08:07.817Z,54.03
2022-09-13T07:09:17.374Z,53.83
2022-09-13T07:10:21.927Z,53.78
2022-09-13T07:11:26.935Z,53.65
2022-09-13T07:12:29.090Z,53.51
2022-09-13T07:13:31.323Z,53.59
2022-09-13T07:14:33.491Z,53.40
2022-09-13T07:15:37.030Z,53.31
2022-09-13T07:16:39.285Z,53.76
2022-09-13T07:17:41.465Z,53.68
2022-09-13T07:18:43.661Z,53.73
2022-09-13T07:19:47.188Z,53.71
2022-09-13T07:20:49.316Z,53.53
2022-09-13T07:21:51.488Z,53.50
2022-09-13T07:22:53.608Z,53.62
2022-09-13T07:23:57.082Z,53.43
2022-09-13T07:25:00.301Z,53.61
2022-09-13T07:26:05.596Z,53.49
2022-09-13T07:27:07.740Z,53.59
2022-09-13T07:28:12.864Z,53.55
2022-09-13T07:29:19.230Z,53.28
2022-09-13T07:30:21.654Z,53.66
2022-09-13T07:31:32.848Z,53.42
2022-09-13T07:32:35.010Z,53.43
2022-09-13T07:33:41.663Z,53.68
2022-09-13T07:34:43.840Z,53.84
2022-09-13T07:35:46.072Z,53.50
2022-09-13T07:36:48.972Z,53.67
2022-09-13T07:37:51.108Z,53.81
2022-09-13T07:38:53.303Z,53.80
2022-09-13T07:39:58.530Z,53.46
2022-09-13T07:41:01.018Z,53.63
2022-09-13T07:42:03.167Z,53.83
2022-09-13T07:43:08.129Z,53.81
2022-09-13T07:44:11.710Z,53.87
2022-09-13T07:45:16.800Z,53.85
2022-09-13T07:46:22.183Z,53.80
2022-09-13T07:47:24.385Z,53.90
2022-09-13T07:48:31.553Z,53.70
2022-09-13T07:49:35.589Z,53.48
2022-09-13T07:50:37.945Z,53.97
2022-09-13T07:51:42.168Z,53.74
2022-09-13T07:52:47.401Z,53.87
2022-09-13T07:53:55.002Z,54.06
2022-09-13T07:54:59.624Z,54.37
2022-09-13T07:56:15.569Z,54.36
2022-09-13T07:57:17.719Z,54.58
2022-09-13T07:58:23.373Z,54.82
2022-09-13T07:59:30.032Z,54.76
2022-09-13T08:00:32.499Z,54.81
2022-09-13T08:01:41.604Z,55.36
2022-09-13T08:02:43.965Z,55.27
2022-09-13T08:03:57.798Z,55.67
2022-09-13T08:04:59.926Z,56.07
2022-09-13T08:06:03.050Z,56.20
2022-09-13T08:07:05.184Z,56.33
2022-09-13T08:08:07.507Z,56.69
2022-09-13T08:09:11.161Z,56.65
2022-09-13T08:10:13.404Z,56.59
2022-09-13T08:11:34.610Z,56.75
2022-09-13T08:12:36.759Z,56.59
2022-09-13T08:13:38.896Z,57.08
2022-09-13T08:14:43.418Z,57.05
2022-09-13T08:15:45.688Z,57.20
2022-09-13T08:16:49.039Z,57.27
2022-09-13T08:17:51.274Z,57.18
2022-09-13T08:18:58.204Z,57.09
2022-09-13T08:20:00.398Z,57.72
2022-09-13T08:21:02.556Z,57.76
2022-09-13T08:22:07.013Z,57.89
2022-09-13T08:23:11.010Z,57.83
2022-09-13T08:24:16.676Z,58.24
2022-09-13T08:25:21.655Z,58.72
2022-09-13T08:26:24.020Z,58.86
2022-09-13T08:27:26.165Z,58.74
2022-09-13T08:28:28.442Z,58.69
2022-09-13T08:29:30.631Z,58.66
2022-09-13T08:30:35.971Z,58.80
2022-09-13T08:31:38.134Z,58.64
2022-09-13T08:32:40.311Z,58.58
2022-09-13T08:33:51.536Z,58.80
2022-09-13T08:34:54.018Z,58.67
2022-09-13T08:35:58.237Z,58.21
2022-09-13T08:37:03.426Z,58.44
2022-09-13T08:38:06.423Z,58.34
2022-09-13T08:39:09.714Z,58.36
2022-09-13T08:40:14.505Z,58.53
2022-09-13T08:41:39.723Z,58.53
2022-09-13T08:43:14.950Z,58.65
2022-09-13T08:44:40.631Z,58.46
2022-09-13T08:46:02.950Z,58.55
2022-09-13T08:47:46.269Z,58.89
2022-09-13T08:48:51.802Z,58.85
2022-09-13T08:50:31.453Z,59.22
2022-09-13T08:51:49.775Z,59.37
2022-09-13T08:52:57.952Z,59.15
2022-09-13T08:54:00.942Z,58.87
2022-09-13T08:55:15.756Z,58.84
2022-09-13T08:56:35.697Z,58.87
2022-09-13T08:57:59.774Z,58.59
2022-09-13T08:59:19.300Z,58.94
2022-09-13T09:00:37.189Z,59.09
2022-09-13T09:01:54.106Z,58.92
2022-09-13T09:03:20.906Z,58.99
2022-09-13T09:04:39.367Z,58.88
2022-09-13T09:05:48.009Z,59.35
2022-09-13T09:06:50.548Z,59.52
2022-09-13T09:07:58.523Z,59.39
2022-09-13T09:09:07.810Z,59.40
2022-09-13T09:10:23.239Z,59.24
2022-09-13T09:11:41.551Z,59.48
2022-09-13T09:13:07.635Z,59.32
2022-09-13T09:14:27.813Z,59.36
2022-09-13T09:15:36.278Z,59.38
2022-09-13T09:16:43.445Z,59.39
2022-09-13T09:18:04.265Z,59.28
2022-09-13T09:19:35.402Z,59.71
2022-09-13T09:20:48.980Z,59.73
2022-09-13T09:22:02.393Z,59.65
2022-09-13T09:23:14.968Z,59.29
2022-09-13T09:24:23.709Z,58.95
2022-09-13T09:25:27.065Z,58.84
2022-09-13T09:26:31.118Z,58.82
2022-09-13T09:27:36.374Z,58.78
2022-09-13T09:28:38.543Z,58.37
2022-09-13T09:29:44.289Z,58.61
2022-09-13T09:30:53.729Z,58.49
2022-09-13T09:32:23.624Z,58.53
2022-09-13T09:33:56.282Z,58.88
2022-09-13T09:35:23.518Z,58.79
2022-09-13T09:36:46.271Z,58.70
2022-09-13T09:38:16.048Z,58.93
2022-09-13T09:39:18.225Z,58.49
2022-09-13T09:40:21.167Z,58.15
2022-09-13T09:41:34.958Z,58.11
2022-09-13T09:42:48.455Z,57.91
2022-09-13T09:44:00.441Z,58.10
2022-09-13T09:45:06.376Z,58.19
2022-09-13T09:46:11.793Z,58.03
2022-09-13T09:47:18.369Z,57.87
2022-09-13T09:48:27.127Z,58.32
2022-09-13T09:49:58.030Z,58.33
2022-09-13T09:51:05.336Z,58.59
2022-09-13T09:52:11.414Z,58.94
2022-09-13T09:53:32.588Z,58.88
2022-09-13T09:54:39.883Z,59.19
2022-09-13T09:55:56.031Z,59.03
2022-09-13T09:56:58.190Z,58.79
2022-09-13T09:58:08.348Z,58.34
2022-09-13T09:59:27.219Z,57.99
2022-09-13T10:00:36.726Z,58.40
2022-09-13T10:01:46.944Z,57.79
2022-09-13T10:02:53.988Z,57.46
2022-09-13T10:04:22.247Z,57.46
2022-09-13T10:05:26.540Z,57.11
2022-09-13T10:06:30.338Z,56.83
2022-09-13T10:07:35.874Z,56.43
2022-09-13T10:08:40.764Z,56.19
2022-09-13T10:10:04.612Z,55.85
2022-09-13T10:11:07.783Z,55.49
2022-09-13T10:12:11.269Z,54.77
2022-09-13T10:13:20.267Z,53.89
2022-09-13T10:14:34.872Z,54.09
2022-09-13T10:15:37.046Z,53.24
2022-09-13T10:16:39.341Z,53.41
2022-09-13T10:17:41.787Z,53.00
2022-09-13T10:18:45.153Z,52.97
2022-09-13T10:20:13.687Z,53.44
2022-09-13T10:21:18.657Z,51.64
2022-09-13T10:22:23.170Z,51.02
2022-09-13T10:23:25.298Z,50.88
2022-09-13T10:24:28.587Z,50.49
2022-09-13T10:25:31.963Z,49.76
2022-09-13T10:26:34.488Z,49.26
2022-09-13T10:27:42.867Z,49.23
2022-09-13T10:28:56.897Z,49.12
2022-09-13T10:30:02.372Z,48.73
2022-09-13T10:31:16.241Z,47.88
2022-09-13T10:32:19.953Z,48.36
2022-09-13T10:33:36.695Z,48.00
2022-09-13T10:34:43.841Z,47.24
2022-09-13T10:35:49.625Z,46.83
2022-09-13T10:37:06.191Z,47.30
2022-09-13T10:38:26.386Z,47.86
2022-09-13T10:39:32.189Z,46.96
2022-09-13T10:40:34.780Z,46.60
2022-09-13T10:41:42.446Z,46.07
2022-09-13T10:42:56.833Z,46.91
2022-09-13T10:44:00.894Z,46.24
2022-09-13T10:45:02.951Z,46.38
2022-09-13T10:46:12.941Z,45.84
2022-09-13T10:47:36.308Z,46.39
2022-09-13T10:48:48.122Z,46.35
2022-09-13T10:49:53.585Z,45.58
2022-09-13T10:51:09.391Z,45.58
2022-09-13T10:52:34.114Z,45.40
2022-09-13T10:53:42.077Z,45.59
2022-09-13T10:54:44.203Z,45.33
2022-09-13T10:55:54.260Z,45.65
2022-09-13T10:56:56.599Z,45.91
2022-09-13T10:58:01.780Z,45.87
2022-09-13T10:59:22.750Z,46.42
2022-09-13T11:00:35.439Z,46.00
2022-09-13T11:01:59.251Z,45.52
2022-09-13T11:03:22.913Z,45.42
2022-09-13T11:04:50.652Z,45.37
2022-09-13T11:05:55.486Z,45.06
2022-09-13T11:07:28.732Z,45.81
2022-09-13T11:08:40.834Z,45.34
2022-09-13T11:09:56.104Z,45.37
2022-09-13T11:11:13.588Z,44.80
2022-09-13T11:12:24.649Z,44.48
2022-09-13T11:13:45.113Z,44.33
2022-09-13T11:15:21.424Z,44.28
2022-09-13T11:17:12.020Z,44.34
2022-09-13T11:18:28.371Z,43.88
2022-09-13T11:19:49.070Z,43.59
2022-09-13T11:21:23.701Z,43.38
2022-09-13T11:22:35.012Z,42.68
2022-09-13T11:23:47.647Z,42.47
2022-09-13T11:25:15.885Z,42.95
2022-09-13T11:26:29.192Z,42.37
2022-09-13T11:27:49.715Z,43.25
2022-09-13T11:28:57.573Z,42.43
2022-09-13T11:30:35.932Z,42.70
2022-09-13T11:32:08.084Z,42.41
2022-09-13T11:33:38.307Z,42.82
2022-09-13T11:35:05.960Z,41.99
2022-09-13T11:36:29.621Z,42.95
2022-09-13T11:38:15.112Z,43.00
2022-09-13T11:39:36.540Z,42.61
2022-09-13T11:40:42.977Z,42.42
2022-09-13T11:42:01.771Z,42.40
2022-09-13T11:43:13.842Z,42.04
2022-09-13T11:44:36.010Z,41.99
2022-09-13T11:45:50.473Z,41.04
2022-09-13T11:46:55.722Z,41.50
2022-09-13T11:48:09.942Z,41.69
2022-09-13T11:49:43.358Z,41.90
2022-09-13T11:50:49.837Z,41.86
2022-09-13T11:52:02.521Z,41.33
2022-09-13T11:53:29.868Z,41.85
2022-09-13T11:54:51.093Z,41.51
2022-09-13T11:56:03.938Z,42.00
2022-09-13T11:57:18.530Z,41.87
2022-09-13T11:58:33.454Z,41.61
2022-09-13T11:59:47.029Z,41.25
2022-09-13T12:00:56.116Z,41.70
2022-09-13T12:02:25.046Z,41.83
2022-09-13T12:03:57.716Z,42.65
2022-09-13T12:05:24.267Z,41.72
2022-09-13T12:06:37.310Z,41.38
2022-09-13T12:07:49.220Z,40.92
2022-09-13T12:08:58.366Z,40.23
2022-09-13T12:10:08.367Z,40.39
2022-09-13T12:11:17.640Z,39.89
2022-09-13T12:12:21.825Z,39.74
2022-09-13T12:13:27.704Z,39.52
2022-09-13T12:14:38.901Z,39.86
2022-09-13T12:15:44.598Z,39.75
2022-09-13T12:16:54.325Z,39.90
2022-09-13T12:18:02.850Z,39.98
2022-09-13T12:19:37.199Z,40.44
2022-09-13T12:20:48.264Z,40.07
2022-09-13T12:21:53.545Z,39.33
2022-09-13T12:22:58.193Z,39.26
2022-09-13T12:24:00.264Z,39.24
2022-09-13T12:25:08.014Z,39.30
2022-09-13T12:26:30.913Z,39.71
2022-09-13T12:27:52.225Z,40.08
2022-09-13T12:29:11.580Z,39.96
2022-09-13T12:30:19.568Z,40.08
2022-09-13T12:31:28.444Z,39.98
2022-09-13T12:32:31.385Z,39.91
2022-09-13T12:33:38.550Z,40.16
2022-09-13T12:34:54.559Z,40.01
2022-09-13T12:36:20.485Z,40.06
2022-09-13T12:37:41.284Z,39.60
2022-09-13T12:38:46.234Z,39.53
2022-09-13T12:40:09.761Z,39.61
2022-09-13T12:41:33.513Z,39.50
2022-09-13T12:42:54.636Z,39.92
2022-09-13T12:44:23.365Z,40.18
2022-09-13T12:45:42.759Z,40.30
2022-09-13T12:46:59.322Z,40.35
2022-09-13T12:48:21.744Z,40.38
2022-09-13T12:49:33.932Z,39.47
2022-09-13T12:50:50.201Z,39.38
2022-09-13T12:52:01.841Z,39.59
2022-09-13T12:53:16.715Z,39.41
2022-09-13T12:54:41.842Z,39.40
2022-09-13T12:56:00.199Z,39.64
2022-09-13T12:57:22.130Z,40.21
2022-09-13T12:58:55.222Z,40.11
2022-09-13T13:00:21.139Z,40.01
2022-09-13T13:01:25.999Z,39.67
2022-09-13T13:02:33.925Z,39.42
2022-09-13T13:04:10.875Z,39.92
2022-09-13T13:05:34.521Z,40.36
2022-09-13T13:06:51.635Z,40.12
2022-09-13T13:08:06.958Z,39.85
2022-09-13T13:09:44.526Z,39.97
2022-09-13T13:11:03.618Z,39.72
2022-09-13T13:12:06.349Z,39.45
2022-09-13T13:13:22.819Z,39.32
2022-09-13T13:14:38.759Z,39.00
2022-09-13T13:15:47.866Z,39.18
2022-09-13T13:16:51.986Z,38.78
2022-09-13T13:17:55.926Z,38.88
2022-09-13T13:18:59.739Z,38.52
2022-09-13T13:20:44.096Z,39.22
2022-09-13T13:21:48.370Z,38.50
2022-09-13T13:22:52.022Z,38.48
2022-09-13T13:24:21.790Z,38.81
2022-09-13T13:25:39.958Z,38.80
2022-09-13T13:26:49.651Z,39.10
2022-09-13T13:27:55.298Z,39.08
2022-09-13T13:29:03.787Z,39.11
2022-09-13T13:30:34.776Z,39.50
2022-09-13T13:31:38.424Z,39.21
2022-09-13T13:33:26.937Z,39.73
2022-09-13T13:34:49.256Z,38.84
2022-09-13T13:35:52.346Z,39.19
2022-09-13T13:37:14.739Z,39.70
2022-09-13T13:38:37.849Z,39.71
2022-09-13T13:40:10.137Z,40.01
2022-09-13T13:41:31.264Z,40.01
2022-09-13T13:42:40.771Z,40.02
2022-09-13T13:43:42.985Z,39.55
2022-09-13T13:44:45.101Z,39.88
2022-09-13T13:45:58.727Z,40.30
2022-09-13T13:47:06.926Z,39.97
2022-09-13T13:48:15.686Z,39.89
2022-09-13T13:49:32.915Z,40.11
2022-09-13T13:50:39.121Z,40.32
2022-09-13T13:51:41.996Z,40.16
2022-09-13T13:52:46.881Z,39.71
2022-09-13T13:53:59.353Z,40.17
2022-09-13T13:55:21.789Z,40.26
2022-09-13T13:56:35.034Z,40.74
2022-09-13T13:57:56.113Z,40.53
2022-09-13T13:59:12.810Z,40.34
2022-09-13T14:00:31.413Z,40.43
2022-09-13T14:01:36.564Z,40.48
2022-09-13T14:03:07.636Z,40.41
2022-09-13T14:04:37.957Z,40.50
2022-09-13T14:05:52.321Z,40.68
2022-09-13T14:07:29.476Z,40.77
2022-09-13T14:08:40.939Z,41.08
2022-09-13T14:10:08.847Z,40.73
2022-09-13T14:11:36.017Z,40.66
2022-09-13T14:12:51.964Z,41.04
2022-09-13T14:14:36.237Z,41.12
2022-09-13T14:15:54.819Z,41.03
2022-09-13T14:17:18.074Z,41.17
2022-09-13T14:18:39.702Z,40.88
2022-09-13T14:19:49.726Z,41.23
2022-09-13T14:21:04.752Z,41.07
2022-09-13T14:22:26.081Z,41.27
2022-09-13T14:23:28.724Z,40.71
2022-09-13T14:24:44.801Z,40.58
2022-09-13T14:25:55.135Z,40.56
2022-09-13T14:27:08.686Z,40.85
2022-09-13T14:28:20.067Z,40.55
2022-09-13T14:29:25.379Z,40.79
2022-09-13T14:30:35.027Z,40.94
2022-09-13T14:31:37.970Z,40.75
2022-09-13T14:32:44.119Z,39.88
2022-09-13T14:33:46.742Z,39.88
2022-09-13T14:35:30.440Z,40.58
2022-09-13T14:36:32.604Z,40.12
2022-09-13T14:37:38.271Z,40.25
2022-09-13T14:38:55.053Z,40.42
2022-09-13T14:40:03.437Z,40.20
2022-09-13T14:41:17.950Z,40.29
2022-09-13T14:42:20.109Z,40.59
2022-09-13T14:43:25.115Z,40.67
2022-09-13T14:44:29.251Z,40.57
2022-09-13T14:45:36.659Z,40.48
2022-09-13T14:46:46.343Z,40.93
2022-09-13T14:48:15.618Z,40.72
2022-09-13T14:49:30.512Z,41.30
2022-09-13T14:50:40.643Z,40.99
2022-09-13T14:51:56.882Z,41.22
2022-09-13T14:53:06.310Z,41.39
2022-09-13T14:54:21.058Z,41.15
2022-09-13T14:55:31.620Z,41.29
2022-09-13T14:56:44.490Z,41.72
2022-09-13T14:57:58.683Z,41.48
2022-09-13T14:59:06.728Z,41.38
2022-09-13T15:00:20.557Z,41.57
2022-09-13T15:01:29.998Z,41.77
2022-09-13T15:02:38.054Z,41.50
2022-09-13T15:03:48.085Z,41.83
2022-09-13T15:04:53.853Z,41.83
2022-09-13T15:06:02.682Z,41.98
2022-09-13T15:07:30.467Z,41.63
2022-09-13T15:08:32.572Z,41.84
2022-09-13T15:09:37.762Z,42.15
2022-09-13T15:10:44.131Z,41.86